Aeroporto :
LOGIN :

Iscrizione | Disclaimer

   EN    FR    IT 

 










Sommario :    VFR   VFR Marginale   IFR   IFR Intensivo   IFR Molto Intensivo
Visibilità : 
Base nubi : 
>= 8 km
>= 3000ft
5 / 8 km
1000 / 3000 ft
1500m / 5 km
500 / 1000 ft
800 / 1500m
200 / 500 ft
< 800m
< 200 ft
Simboli :   Temporali  Nebbia  Neve Forte  Precipitazioni Forti  Vento > 20 kt
SIGMETs :   Varie  Temporali  Ghiacco  Turbolenza  Onda orograficha  Ceneri Vulcaniche






- Altitudine del aeroporto : 13 ft
- Codice IATA : CEQ


LFMD - Cannes Mandelieu

ULTIMO METAR :
  • 211530Z AUTO 15006KT 110V180 CAVOK 14/09 Q1024 NOSIG

METARs OBSOLETI :
  • 211500Z AUTO 14006KT 090V180 CAVOK 15/09 Q1024 NOSIG
  • 211430Z AUTO 17007KT CAVOK 15/09 Q1023 NOSIG
  • 211400Z AUTO 17007KT 130V190 CAVOK 15/09 Q1024 NOSIG
  • 211330Z AUTO 18007KT CAVOK 15/09 Q1023 NOSIG
  • 211300Z AUTO 17007KT 130V190 CAVOK 15/09 Q1023 NOSIG

TAF TAF LFMD
Valido dal 21 a 15 ore il 22 a 15 ore UTC


211400Z 2115/2215 14010KT CAVOK
BECMG 2117/2119 VRB05KT
TEMPO 2119/2209 BKN014
BECMG 2213/2215 18010KT 9999 SCT030
ATIS : +33 4 93 48 73 23



MetMap, La meteo Aeronautica in un colpo d'occhio ! - Copyright ORBIFLY Dicembre 2007 - Disclaimer

ORBIFLY MET'MAP TEAM :

Programmazione e sviluppo : Alexandra Zaïnal
Concezione : Baudouin d'Aumeries
Aiuto per la programmazione : Marc-Olivier Méhu
Supporto tecnico e logistico : Manuel Goepfert
Aiuto per la traduzione : Arnaldo La Scala

Contatto : metmap@orbifly.com




FONTI E CREDITI :

   NOAA